sensor_id;sensor_type;location;lat;lon;timestamp;P1;durP1;ratioP1;P2;durP2;ratioP2
57651;SDS011;43480;53.116;6.734;2023-12-20T00:00:49;11.65;;;2.30;;
57651;SDS011;43480;53.116;6.734;2023-12-20T00:03:15;16.20;;;2.50;;
57651;SDS011;43480;53.116;6.734;2023-12-20T00:05:40;16.40;;;3.38;;
57651;SDS011;43480;53.116;6.734;2023-12-20T00:08:06;12.40;;;2.75;;
57651;SDS011;43480;53.116;6.734;2023-12-20T00:10:32;13.88;;;2.78;;
57651;SDS011;43480;53.116;6.734;2023-12-20T00:12:57;14.05;;;3.13;;
57651;SDS011;43480;53.116;6.734;2023-12-20T00:15:23;14.63;;;3.00;;
57651;SDS011;43480;53.116;6.734;2023-12-20T00:17:49;16.40;;;2.67;;
57651;SDS011;43480;53.116;6.734;2023-12-20T00:20:14;8.15;;;2.63;;
57651;SDS011;43480;53.116;6.734;2023-12-20T00:22:40;15.73;;;2.75;;
57651;SDS011;43480;53.116;6.734;2023-12-20T00:25:06;13.10;;;2.40;;
57651;SDS011;43480;53.116;6.734;2023-12-20T00:27:32;11.90;;;4.30;;
57651;SDS011;43480;53.116;6.734;2023-12-20T00:29:58;14.10;;;3.05;;
57651;SDS011;43480;53.116;6.734;2023-12-20T00:32:25;11.88;;;2.78;;
57651;SDS011;43480;53.116;6.734;2023-12-20T00:34:50;13.50;;;2.50;;
57651;SDS011;43480;53.116;6.734;2023-12-20T00:37:16;13.43;;;3.45;;
57651;SDS011;43480;53.116;6.734;2023-12-20T00:39:41;11.57;;;2.42;;
57651;SDS011;43480;53.116;6.734;2023-12-20T00:42:07;16.45;;;2.72;;
57651;SDS011;43480;53.116;6.734;2023-12-20T00:44:33;15.13;;;2.42;;
57651;SDS011;43480;53.116;6.734;2023-12-20T00:46:58;14.70;;;2.45;;
57651;SDS011;43480;53.116;6.734;2023-12-20T00:49:24;11.55;;;2.38;;
57651;SDS011;43480;53.116;6.734;2023-12-20T00:51:50;16.05;;;2.72;;
57651;SDS011;43480;53.116;6.734;2023-12-20T00:54:17;14.07;;;3.15;;
57651;SDS011;43480;53.116;6.734;2023-12-20T00:56:43;20.33;;;3.80;;
57651;SDS011;43480;53.116;6.734;2023-12-20T00:59:09;10.60;;;2.55;;
57651;SDS011;43480;53.116;6.734;2023-12-20T01:01:35;13.10;;;2.75;;
57651;SDS011;43480;53.116;6.734;2023-12-20T01:04:01;11.48;;;3.17;;
57651;SDS011;43480;53.116;6.734;2023-12-20T01:06:27;16.02;;;2.67;;
57651;SDS011;43480;53.116;6.734;2023-12-20T01:08:53;11.15;;;2.83;;
57651;SDS011;43480;53.116;6.734;2023-12-20T01:11:18;16.60;;;2.63;;
57651;SDS011;43480;53.116;6.734;2023-12-20T01:13:44;15.23;;;3.00;;
57651;SDS011;43480;53.116;6.734;2023-12-20T01:16:10;11.15;;;2.72;;
57651;SDS011;43480;53.116;6.734;2023-12-20T01:18:37;14.40;;;2.60;;
57651;SDS011;43480;53.116;6.734;2023-12-20T01:21:04;14.13;;;3.22;;
57651;SDS011;43480;53.116;6.734;2023-12-20T01:23:30;14.73;;;3.63;;
57651;SDS011;43480;53.116;6.734;2023-12-20T01:25:57;14.13;;;3.30;;
57651;SDS011;43480;53.116;6.734;2023-12-20T01:28:24;11.93;;;3.25;;
57651;SDS011;43480;53.116;6.734;2023-12-20T01:30:50;14.90;;;2.97;;
57651;SDS011;43480;53.116;6.734;2023-12-20T01:33:16;12.82;;;2.67;;
57651;SDS011;43480;53.116;6.734;2023-12-20T01:35:42;16.25;;;2.80;;
57651;SDS011;43480;53.116;6.734;2023-12-20T01:38:07;18.42;;;3.40;;
57651;SDS011;43480;53.116;6.734;2023-12-20T01:40:33;17.52;;;3.20;;
57651;SDS011;43480;53.116;6.734;2023-12-20T01:43:00;16.55;;;4.97;;
57651;SDS011;43480;53.116;6.734;2023-12-20T01:45:43;19.05;;;3.00;;
57651;SDS011;43480;53.116;6.734;2023-12-20T01:48:09;18.65;;;3.50;;
57651;SDS011;43480;53.116;6.734;2023-12-20T01:50:36;17.13;;;4.00;;
57651;SDS011;43480;53.116;6.734;2023-12-20T01:53:03;18.15;;;3.35;;
57651;SDS011;43480;53.116;6.734;2023-12-20T01:55:31;18.88;;;3.17;;
57651;SDS011;43480;53.116;6.734;2023-12-20T01:57:59;16.40;;;4.15;;
57651;SDS011;43480;53.116;6.734;2023-12-20T02:00:26;13.95;;;3.13;;
57651;SDS011;43480;53.116;6.734;2023-12-20T02:02:54;11.48;;;3.08;;
57651;SDS011;43480;53.116;6.734;2023-12-20T02:05:20;15.73;;;3.03;;
57651;SDS011;43480;53.116;6.734;2023-12-20T02:07:47;18.52;;;4.45;;
57651;SDS011;43480;53.116;6.734;2023-12-20T02:10:13;13.15;;;2.50;;
57651;SDS011;43480;53.116;6.734;2023-12-20T02:12:39;12.90;;;2.30;;
57651;SDS011;43480;53.116;6.734;2023-12-20T02:15:05;9.60;;;2.53;;
57651;SDS011;43480;53.116;6.734;2023-12-20T02:17:31;7.75;;;2.10;;
57651;SDS011;43480;53.116;6.734;2023-12-20T02:19:58;11.45;;;2.80;;
57651;SDS011;43480;53.116;6.734;2023-12-20T02:22:23;13.40;;;2.67;;
57651;SDS011;43480;53.116;6.734;2023-12-20T02:24:49;12.40;;;2.92;;
57651;SDS011;43480;53.116;6.734;2023-12-20T02:27:14;13.38;;;3.88;;
57651;SDS011;43480;53.116;6.734;2023-12-20T02:29:43;24.65;;;5.57;;
57651;SDS011;43480;53.116;6.734;2023-12-20T02:32:08;28.55;;;4.90;;
57651;SDS011;43480;53.116;6.734;2023-12-20T02:34:34;19.13;;;3.95;;
57651;SDS011;43480;53.116;6.734;2023-12-20T02:37:00;20.20;;;4.20;;
57651;SDS011;43480;53.116;6.734;2023-12-20T02:39:25;19.98;;;3.97;;
57651;SDS011;43480;53.116;6.734;2023-12-20T02:41:51;20.65;;;5.22;;
57651;SDS011;43480;53.116;6.734;2023-12-20T02:44:17;17.17;;;3.95;;
57651;SDS011;43480;53.116;6.734;2023-12-20T02:46:42;16.35;;;3.90;;
57651;SDS011;43480;53.116;6.734;2023-12-20T02:49:08;22.15;;;4.45;;
57651;SDS011;43480;53.116;6.734;2023-12-20T02:51:34;22.58;;;3.75;;
57651;SDS011;43480;53.116;6.734;2023-12-20T02:53:59;17.05;;;4.00;;
57651;SDS011;43480;53.116;6.734;2023-12-20T02:56:25;25.83;;;5.20;;
57651;SDS011;43480;53.116;6.734;2023-12-20T02:58:51;20.08;;;5.43;;
57651;SDS011;43480;53.116;6.734;2023-12-20T03:01:16;19.30;;;4.40;;
57651;SDS011;43480;53.116;6.734;2023-12-20T03:03:42;18.83;;;4.68;;
57651;SDS011;43480;53.116;6.734;2023-12-20T03:06:08;19.05;;;4.70;;
57651;SDS011;43480;53.116;6.734;2023-12-20T03:08:33;20.73;;;4.97;;
57651;SDS011;43480;53.116;6.734;2023-12-20T03:10:59;24.45;;;5.07;;
57651;SDS011;43480;53.116;6.734;2023-12-20T03:13:25;12.85;;;4.00;;
57651;SDS011;43480;53.116;6.734;2023-12-20T03:15:50;31.45;;;6.63;;
57651;SDS011;43480;53.116;6.734;2023-12-20T03:18:16;21.92;;;4.53;;
57651;SDS011;43480;53.116;6.734;2023-12-20T03:20:43;18.80;;;4.63;;
57651;SDS011;43480;53.116;6.734;2023-12-20T03:23:08;27.17;;;5.35;;
57651;SDS011;43480;53.116;6.734;2023-12-20T03:25:34;20.90;;;4.80;;
57651;SDS011;43480;53.116;6.734;2023-12-20T03:28:00;26.77;;;5.68;;
57651;SDS011;43480;53.116;6.734;2023-12-20T03:30:25;18.30;;;3.95;;
57651;SDS011;43480;53.116;6.734;2023-12-20T03:32:51;20.40;;;4.95;;
57651;SDS011;43480;53.116;6.734;2023-12-20T03:35:17;22.30;;;6.05;;
57651;SDS011;43480;53.116;6.734;2023-12-20T03:37:45;25.70;;;5.10;;
57651;SDS011;43480;53.116;6.734;2023-12-20T03:40:11;24.60;;;5.30;;
57651;SDS011;43480;53.116;6.734;2023-12-20T03:42:36;22.60;;;5.22;;
57651;SDS011;43480;53.116;6.734;2023-12-20T03:45:02;24.20;;;4.97;;
57651;SDS011;43480;53.116;6.734;2023-12-20T03:47:28;25.02;;;5.25;;
57651;SDS011;43480;53.116;6.734;2023-12-20T03:49:53;28.08;;;4.70;;
57651;SDS011;43480;53.116;6.734;2023-12-20T03:52:19;27.70;;;5.60;;
57651;SDS011;43480;53.116;6.734;2023-12-20T03:54:45;23.52;;;5.35;;
57651;SDS011;43480;53.116;6.734;2023-12-20T03:57:10;24.40;;;5.15;;
57651;SDS011;43480;53.116;6.734;2023-12-20T03:59:36;28.00;;;5.05;;
57651;SDS011;43480;53.116;6.734;2023-12-20T04:02:03;17.20;;;4.18;;
57651;SDS011;43480;53.116;6.734;2023-12-20T04:04:29;18.67;;;6.53;;
57651;SDS011;43480;53.116;6.734;2023-12-20T04:06:55;27.30;;;4.82;;
57651;SDS011;43480;53.116;6.734;2023-12-20T04:09:21;25.45;;;5.60;;
57651;SDS011;43480;53.116;6.734;2023-12-20T04:11:46;20.08;;;4.90;;
57651;SDS011;43480;53.116;6.734;2023-12-20T04:14:12;18.48;;;4.32;;
57651;SDS011;43480;53.116;6.734;2023-12-20T04:16:38;23.58;;;5.55;;
57651;SDS011;43480;53.116;6.734;2023-12-20T04:19:04;26.60;;;5.47;;
57651;SDS011;43480;53.116;6.734;2023-12-20T04:21:30;21.30;;;5.53;;
57651;SDS011;43480;53.116;6.734;2023-12-20T04:23:55;25.45;;;5.25;;
57651;SDS011;43480;53.116;6.734;2023-12-20T04:26:21;20.15;;;5.40;;
57651;SDS011;43480;53.116;6.734;2023-12-20T04:28:47;26.48;;;5.47;;
57651;SDS011;43480;53.116;6.734;2023-12-20T04:31:12;19.42;;;4.43;;
57651;SDS011;43480;53.116;6.734;2023-12-20T04:33:38;27.50;;;5.47;;
57651;SDS011;43480;53.116;6.734;2023-12-20T04:36:04;30.08;;;5.85;;
57651;SDS011;43480;53.116;6.734;2023-12-20T04:38:30;23.45;;;5.47;;
57651;SDS011;43480;53.116;6.734;2023-12-20T04:40:56;26.08;;;5.03;;
57651;SDS011;43480;53.116;6.734;2023-12-20T04:43:21;21.10;;;5.43;;
57651;SDS011;43480;53.116;6.734;2023-12-20T04:45:47;17.52;;;4.20;;
57651;SDS011;43480;53.116;6.734;2023-12-20T04:48:13;31.08;;;5.30;;
57651;SDS011;43480;53.116;6.734;2023-12-20T04:50:38;24.02;;;5.50;;
57651;SDS011;43480;53.116;6.734;2023-12-20T04:53:04;22.00;;;4.20;;
57651;SDS011;43480;53.116;6.734;2023-12-20T04:55:30;26.73;;;5.35;;
57651;SDS011;43480;53.116;6.734;2023-12-20T04:57:56;21.83;;;5.35;;
57651;SDS011;43480;53.116;6.734;2023-12-20T05:00:21;20.88;;;4.65;;
57651;SDS011;43480;53.116;6.734;2023-12-20T05:02:47;26.90;;;4.75;;
57651;SDS011;43480;53.116;6.734;2023-12-20T05:05:13;26.77;;;4.72;;
57651;SDS011;43480;53.116;6.734;2023-12-20T05:07:40;20.63;;;4.90;;
57651;SDS011;43480;53.116;6.734;2023-12-20T05:10:06;22.20;;;5.18;;
57651;SDS011;43480;53.116;6.734;2023-12-20T05:12:35;21.83;;;4.97;;
57651;SDS011;43480;53.116;6.734;2023-12-20T05:15:00;26.20;;;5.72;;
57651;SDS011;43480;53.116;6.734;2023-12-20T05:17:26;22.85;;;5.63;;
57651;SDS011;43480;53.116;6.734;2023-12-20T05:19:52;31.42;;;4.82;;
57651;SDS011;43480;53.116;6.734;2023-12-20T05:22:18;20.63;;;4.53;;
57651;SDS011;43480;53.116;6.734;2023-12-20T05:24:45;21.88;;;3.90;;
57651;SDS011;43480;53.116;6.734;2023-12-20T05:27:10;21.85;;;4.53;;
57651;SDS011;43480;53.116;6.734;2023-12-20T05:29:36;27.88;;;5.32;;
57651;SDS011;43480;53.116;6.734;2023-12-20T05:32:02;24.05;;;6.15;;
57651;SDS011;43480;53.116;6.734;2023-12-20T05:34:29;22.80;;;5.35;;
57651;SDS011;43480;53.116;6.734;2023-12-20T05:36:56;22.45;;;4.47;;
57651;SDS011;43480;53.116;6.734;2023-12-20T05:39:22;22.38;;;5.13;;
57651;SDS011;43480;53.116;6.734;2023-12-20T05:41:48;29.42;;;6.13;;
57651;SDS011;43480;53.116;6.734;2023-12-20T05:44:13;27.00;;;4.57;;
57651;SDS011;43480;53.116;6.734;2023-12-20T05:46:39;26.73;;;4.93;;
57651;SDS011;43480;53.116;6.734;2023-12-20T05:49:05;24.85;;;5.32;;
57651;SDS011;43480;53.116;6.734;2023-12-20T05:51:31;17.45;;;5.38;;
57651;SDS011;43480;53.116;6.734;2023-12-20T05:53:57;22.85;;;5.25;;
57651;SDS011;43480;53.116;6.734;2023-12-20T05:56:23;27.65;;;5.43;;
57651;SDS011;43480;53.116;6.734;2023-12-20T05:58:49;21.02;;;4.55;;
57651;SDS011;43480;53.116;6.734;2023-12-20T06:01:15;23.48;;;4.38;;
57651;SDS011;43480;53.116;6.734;2023-12-20T06:03:42;28.08;;;6.07;;
57651;SDS011;43480;53.116;6.734;2023-12-20T06:06:09;27.38;;;5.18;;
57651;SDS011;43480;53.116;6.734;2023-12-20T06:08:35;25.02;;;5.28;;
57651;SDS011;43480;53.116;6.734;2023-12-20T06:11:01;27.75;;;5.68;;
57651;SDS011;43480;53.116;6.734;2023-12-20T06:13:27;15.75;;;4.18;;
57651;SDS011;43480;53.116;6.734;2023-12-20T06:15:56;24.20;;;4.55;;
57651;SDS011;43480;53.116;6.734;2023-12-20T06:18:21;25.40;;;4.00;;
57651;SDS011;43480;53.116;6.734;2023-12-20T06:20:47;25.98;;;5.10;;
57651;SDS011;43480;53.116;6.734;2023-12-20T06:23:14;26.80;;;5.80;;
57651;SDS011;43480;53.116;6.734;2023-12-20T06:25:39;24.05;;;4.88;;
57651;SDS011;43480;53.116;6.734;2023-12-20T06:28:05;31.30;;;8.45;;
57651;SDS011;43480;53.116;6.734;2023-12-20T06:30:31;16.58;;;4.32;;
57651;SDS011;43480;53.116;6.734;2023-12-20T06:32:57;24.48;;;5.05;;
57651;SDS011;43480;53.116;6.734;2023-12-20T06:35:23;17.92;;;4.00;;
57651;SDS011;43480;53.116;6.734;2023-12-20T06:37:49;26.83;;;5.88;;
57651;SDS011;43480;53.116;6.734;2023-12-20T06:40:15;21.65;;;4.50;;
57651;SDS011;43480;53.116;6.734;2023-12-20T06:42:41;29.30;;;6.28;;
57651;SDS011;43480;53.116;6.734;2023-12-20T06:45:07;25.42;;;5.38;;
57651;SDS011;43480;53.116;6.734;2023-12-20T06:47:33;26.45;;;4.97;;
57651;SDS011;43480;53.116;6.734;2023-12-20T06:49:59;26.08;;;5.47;;
57651;SDS011;43480;53.116;6.734;2023-12-20T06:52:25;22.48;;;5.13;;
57651;SDS011;43480;53.116;6.734;2023-12-20T06:54:51;22.20;;;4.72;;
57651;SDS011;43480;53.116;6.734;2023-12-20T06:57:17;31.55;;;4.82;;
57651;SDS011;43480;53.116;6.734;2023-12-20T06:59:44;34.17;;;5.57;;
57651;SDS011;43480;53.116;6.734;2023-12-20T07:02:09;24.88;;;5.07;;
57651;SDS011;43480;53.116;6.734;2023-12-20T07:04:41;22.63;;;5.93;;
57651;SDS011;43480;53.116;6.734;2023-12-20T07:07:07;20.30;;;5.07;;
57651;SDS011;43480;53.116;6.734;2023-12-20T07:09:33;22.52;;;4.47;;
57651;SDS011;43480;53.116;6.734;2023-12-20T07:11:59;19.60;;;4.45;;
57651;SDS011;43480;53.116;6.734;2023-12-20T07:14:24;23.75;;;4.97;;
57651;SDS011;43480;53.116;6.734;2023-12-20T07:16:50;28.40;;;4.25;;
57651;SDS011;43480;53.116;6.734;2023-12-20T07:19:16;18.50;;;4.80;;
57651;SDS011;43480;53.116;6.734;2023-12-20T07:21:42;25.60;;;5.20;;
57651;SDS011;43480;53.116;6.734;2023-12-20T07:24:08;33.33;;;5.53;;
57651;SDS011;43480;53.116;6.734;2023-12-20T07:26:34;34.83;;;5.97;;
57651;SDS011;43480;53.116;6.734;2023-12-20T07:29:00;14.85;;;4.25;;
57651;SDS011;43480;53.116;6.734;2023-12-20T07:31:26;27.65;;;5.95;;
57651;SDS011;43480;53.116;6.734;2023-12-20T07:33:51;23.65;;;4.85;;
57651;SDS011;43480;53.116;6.734;2023-12-20T07:36:17;21.73;;;6.13;;
57651;SDS011;43480;53.116;6.734;2023-12-20T07:38:44;25.15;;;5.20;;
57651;SDS011;43480;53.116;6.734;2023-12-20T07:41:10;18.85;;;6.13;;
57651;SDS011;43480;53.116;6.734;2023-12-20T07:43:35;23.15;;;5.53;;
57651;SDS011;43480;53.116;6.734;2023-12-20T07:46:05;26.48;;;5.05;;
57651;SDS011;43480;53.116;6.734;2023-12-20T07:48:31;21.67;;;5.25;;
57651;SDS011;43480;53.116;6.734;2023-12-20T07:50:57;24.98;;;5.70;;
57651;SDS011;43480;53.116;6.734;2023-12-20T07:53:23;30.58;;;5.53;;
57651;SDS011;43480;53.116;6.734;2023-12-20T07:55:48;22.17;;;4.63;;
57651;SDS011;43480;53.116;6.734;2023-12-20T07:58:14;26.85;;;6.93;;
57651;SDS011;43480;53.116;6.734;2023-12-20T08:00:40;22.80;;;4.38;;
57651;SDS011;43480;53.116;6.734;2023-12-20T08:03:05;22.30;;;5.85;;
57651;SDS011;43480;53.116;6.734;2023-12-20T08:05:32;22.95;;;4.75;;
57651;SDS011;43480;53.116;6.734;2023-12-20T08:07:57;19.00;;;4.47;;
57651;SDS011;43480;53.116;6.734;2023-12-20T08:10:23;28.63;;;6.03;;
57651;SDS011;43480;53.116;6.734;2023-12-20T08:12:49;25.55;;;4.80;;
57651;SDS011;43480;53.116;6.734;2023-12-20T08:15:15;20.55;;;5.20;;
57651;SDS011;43480;53.116;6.734;2023-12-20T08:17:40;25.63;;;4.82;;
57651;SDS011;43480;53.116;6.734;2023-12-20T08:20:06;25.13;;;5.20;;
57651;SDS011;43480;53.116;6.734;2023-12-20T08:22:32;18.98;;;4.68;;
57651;SDS011;43480;53.116;6.734;2023-12-20T08:24:58;20.48;;;4.43;;
57651;SDS011;43480;53.116;6.734;2023-12-20T08:27:23;18.02;;;4.22;;
57651;SDS011;43480;53.116;6.734;2023-12-20T08:29:50;17.08;;;4.60;;
57651;SDS011;43480;53.116;6.734;2023-12-20T08:32:16;23.63;;;4.95;;
57651;SDS011;43480;53.116;6.734;2023-12-20T08:34:42;22.30;;;5.35;;
57651;SDS011;43480;53.116;6.734;2023-12-20T08:37:07;18.92;;;5.00;;
57651;SDS011;43480;53.116;6.734;2023-12-20T08:39:33;17.67;;;5.13;;
57651;SDS011;43480;53.116;6.734;2023-12-20T08:41:59;19.35;;;4.13;;
57651;SDS011;43480;53.116;6.734;2023-12-20T08:44:24;15.10;;;4.15;;
57651;SDS011;43480;53.116;6.734;2023-12-20T08:46:50;21.33;;;4.00;;
57651;SDS011;43480;53.116;6.734;2023-12-20T08:49:16;17.75;;;4.43;;
57651;SDS011;43480;53.116;6.734;2023-12-20T08:51:42;25.33;;;4.68;;
57651;SDS011;43480;53.116;6.734;2023-12-20T08:54:08;18.27;;;4.15;;
57651;SDS011;43480;53.116;6.734;2023-12-20T08:56:34;22.65;;;4.22;;
57651;SDS011;43480;53.116;6.734;2023-12-20T08:58:59;17.65;;;3.53;;
57651;SDS011;43480;53.116;6.734;2023-12-20T09:01:25;16.77;;;3.75;;
57651;SDS011;43480;53.116;6.734;2023-12-20T09:03:50;9.88;;;2.20;;
57651;SDS011;43480;53.116;6.734;2023-12-20T09:06:16;7.00;;;1.15;;
57651;SDS011;43480;53.116;6.734;2023-12-20T09:08:42;6.15;;;1.13;;
57651;SDS011;43480;53.116;6.734;2023-12-20T09:11:07;16.95;;;2.85;;
57651;SDS011;43480;53.116;6.734;2023-12-20T09:13:33;11.13;;;1.70;;
57651;SDS011;43480;53.116;6.734;2023-12-20T09:15:59;8.82;;;1.70;;
57651;SDS011;43480;53.116;6.734;2023-12-20T09:18:24;11.10;;;1.67;;
57651;SDS011;43480;53.116;6.734;2023-12-20T09:20:50;13.43;;;2.60;;
57651;SDS011;43480;53.116;6.734;2023-12-20T09:23:16;13.20;;;2.30;;
57651;SDS011;43480;53.116;6.734;2023-12-20T09:25:43;11.45;;;2.47;;
57651;SDS011;43480;53.116;6.734;2023-12-20T09:28:09;16.92;;;3.03;;
57651;SDS011;43480;53.116;6.734;2023-12-20T09:30:35;10.50;;;2.08;;
57651;SDS011;43480;53.116;6.734;2023-12-20T09:33:04;9.63;;;2.55;;
57651;SDS011;43480;53.116;6.734;2023-12-20T09:35:32;10.75;;;1.48;;
57651;SDS011;43480;53.116;6.734;2023-12-20T09:37:57;4.35;;;0.73;;
57651;SDS011;43480;53.116;6.734;2023-12-20T09:40:23;6.03;;;1.10;;
57651;SDS011;43480;53.116;6.734;2023-12-20T09:42:57;5.65;;;0.88;;
57651;SDS011;43480;53.116;6.734;2023-12-20T09:45:28;7.10;;;0.98;;
57651;SDS011;43480;53.116;6.734;2023-12-20T09:47:56;3.83;;;0.70;;
57651;SDS011;43480;53.116;6.734;2023-12-20T09:50:23;5.13;;;0.70;;
57651;SDS011;43480;53.116;6.734;2023-12-20T09:52:50;6.97;;;2.10;;
57651;SDS011;43480;53.116;6.734;2023-12-20T09:55:17;7.88;;;1.70;;
57651;SDS011;43480;53.116;6.734;2023-12-20T09:57:44;5.55;;;1.42;;
57651;SDS011;43480;53.116;6.734;2023-12-20T10:00:14;10.98;;;1.42;;
57651;SDS011;43480;53.116;6.734;2023-12-20T10:02:59;6.40;;;1.30;;
57651;SDS011;43480;53.116;6.734;2023-12-20T10:05:29;9.60;;;0.73;;
57651;SDS011;43480;53.116;6.734;2023-12-20T10:07:56;8.02;;;1.30;;
57651;SDS011;43480;53.116;6.734;2023-12-20T10:10:23;7.68;;;1.23;;
57651;SDS011;43480;53.116;6.734;2023-12-20T10:13:02;9.25;;;1.27;;
57651;SDS011;43480;53.116;6.734;2023-12-20T10:15:32;13.18;;;2.15;;
57651;SDS011;43480;53.116;6.734;2023-12-20T10:18:01;5.88;;;1.10;;
57651;SDS011;43480;53.116;6.734;2023-12-20T10:20:28;11.45;;;1.33;;
57651;SDS011;43480;53.116;6.734;2023-12-20T10:22:55;7.40;;;1.80;;
57651;SDS011;43480;53.116;6.734;2023-12-20T10:25:21;10.73;;;1.77;;
57651;SDS011;43480;53.116;6.734;2023-12-20T10:27:47;8.88;;;1.70;;
57651;SDS011;43480;53.116;6.734;2023-12-20T10:30:14;9.02;;;1.25;;
57651;SDS011;43480;53.116;6.734;2023-12-20T10:32:40;8.82;;;2.00;;
57651;SDS011;43480;53.116;6.734;2023-12-20T10:35:06;13.30;;;1.48;;
57651;SDS011;43480;53.116;6.734;2023-12-20T10:37:34;9.30;;;2.00;;
57651;SDS011;43480;53.116;6.734;2023-12-20T10:40:03;10.75;;;1.88;;
57651;SDS011;43480;53.116;6.734;2023-12-20T10:42:30;7.47;;;2.28;;
57651;SDS011;43480;53.116;6.734;2023-12-20T10:44:59;11.98;;;2.08;;
57651;SDS011;43480;53.116;6.734;2023-12-20T10:47:25;10.63;;;1.92;;
57651;SDS011;43480;53.116;6.734;2023-12-20T10:49:54;13.95;;;2.25;;
57651;SDS011;43480;53.116;6.734;2023-12-20T10:52:22;12.85;;;1.90;;
57651;SDS011;43480;53.116;6.734;2023-12-20T10:54:49;7.80;;;2.70;;
57651;SDS011;43480;53.116;6.734;2023-12-20T10:57:15;12.25;;;2.45;;
57651;SDS011;43480;53.116;6.734;2023-12-20T10:59:43;9.20;;;1.67;;
57651;SDS011;43480;53.116;6.734;2023-12-20T11:02:12;9.98;;;2.63;;
57651;SDS011;43480;53.116;6.734;2023-12-20T11:07:17;12.32;;;2.25;;
57651;SDS011;43480;53.116;6.734;2023-12-20T11:09:51;15.13;;;3.35;;
57651;SDS011;43480;53.116;6.734;2023-12-20T11:12:47;16.50;;;3.13;;
57651;SDS011;43480;53.116;6.734;2023-12-20T11:15:13;14.57;;;2.75;;
57651;SDS011;43480;53.116;6.734;2023-12-20T11:17:42;17.23;;;4.13;;
57651;SDS011;43480;53.116;6.734;2023-12-20T11:20:11;11.27;;;2.50;;
57651;SDS011;43480;53.116;6.734;2023-12-20T11:22:37;12.40;;;3.45;;
57651;SDS011;43480;53.116;6.734;2023-12-20T11:25:10;13.13;;;2.50;;
57651;SDS011;43480;53.116;6.734;2023-12-20T11:27:46;18.80;;;3.47;;
57651;SDS011;43480;53.116;6.734;2023-12-20T11:31:08;9.43;;;2.25;;
57651;SDS011;43480;53.116;6.734;2023-12-20T11:33:36;11.13;;;2.35;;
57651;SDS011;43480;53.116;6.734;2023-12-20T11:36:03;16.77;;;3.83;;
57651;SDS011;43480;53.116;6.734;2023-12-20T11:38:37;13.15;;;1.90;;
57651;SDS011;43480;53.116;6.734;2023-12-20T11:41:05;15.23;;;3.38;;
57651;SDS011;43480;53.116;6.734;2023-12-20T11:43:38;10.93;;;2.05;;
57651;SDS011;43480;53.116;6.734;2023-12-20T11:48:38;10.13;;;1.80;;
57651;SDS011;43480;53.116;6.734;2023-12-20T11:51:11;10.93;;;2.60;;
57651;SDS011;43480;53.116;6.734;2023-12-20T11:53:38;14.18;;;2.88;;
57651;SDS011;43480;53.116;6.734;2023-12-20T11:56:07;15.18;;;3.35;;
57651;SDS011;43480;53.116;6.734;2023-12-20T11:58:33;12.25;;;2.33;;
57651;SDS011;43480;53.116;6.734;2023-12-20T12:00:59;8.10;;;2.25;;
57651;SDS011;43480;53.116;6.734;2023-12-20T12:03:27;13.35;;;2.55;;
57651;SDS011;43480;53.116;6.734;2023-12-20T12:05:53;14.65;;;3.35;;
57651;SDS011;43480;53.116;6.734;2023-12-20T12:08:19;11.05;;;2.35;;
57651;SDS011;43480;53.116;6.734;2023-12-20T12:10:45;15.25;;;1.75;;
57651;SDS011;43480;53.116;6.734;2023-12-20T12:13:10;17.88;;;3.25;;
57651;SDS011;43480;53.116;6.734;2023-12-20T12:15:37;15.43;;;3.00;;
57651;SDS011;43480;53.116;6.734;2023-12-20T12:18:03;15.18;;;2.13;;
57651;SDS011;43480;53.116;6.734;2023-12-20T12:20:30;12.15;;;2.03;;
57651;SDS011;43480;53.116;6.734;2023-12-20T12:25:32;12.95;;;2.55;;
57651;SDS011;43480;53.116;6.734;2023-12-20T12:28:00;12.88;;;3.03;;
57651;SDS011;43480;53.116;6.734;2023-12-20T12:30:26;8.32;;;2.08;;
57651;SDS011;43480;53.116;6.734;2023-12-20T12:32:53;10.93;;;2.63;;
57651;SDS011;43480;53.116;6.734;2023-12-20T12:35:19;11.38;;;3.28;;
57651;SDS011;43480;53.116;6.734;2023-12-20T12:37:45;7.88;;;1.73;;
57651;SDS011;43480;53.116;6.734;2023-12-20T12:40:11;14.48;;;2.95;;
57651;SDS011;43480;53.116;6.734;2023-12-20T12:42:39;20.13;;;3.53;;
57651;SDS011;43480;53.116;6.734;2023-12-20T12:45:06;13.10;;;2.10;;
57651;SDS011;43480;53.116;6.734;2023-12-20T12:47:32;15.77;;;2.58;;
57651;SDS011;43480;53.116;6.734;2023-12-20T12:49:59;8.80;;;2.03;;
57651;SDS011;43480;53.116;6.734;2023-12-20T12:52:24;12.48;;;2.65;;
57651;SDS011;43480;53.116;6.734;2023-12-20T12:54:52;16.33;;;3.38;;
57651;SDS011;43480;53.116;6.734;2023-12-20T12:57:18;10.05;;;3.15;;
57651;SDS011;43480;53.116;6.734;2023-12-20T12:59:44;15.70;;;2.88;;
57651;SDS011;43480;53.116;6.734;2023-12-20T13:02:14;13.82;;;2.38;;
57651;SDS011;43480;53.116;6.734;2023-12-20T13:04:40;12.20;;;2.60;;
57651;SDS011;43480;53.116;6.734;2023-12-20T13:07:07;18.23;;;3.35;;
57651;SDS011;43480;53.116;6.734;2023-12-20T13:09:36;11.07;;;2.38;;
57651;SDS011;43480;53.116;6.734;2023-12-20T13:12:01;15.85;;;2.67;;
57651;SDS011;43480;53.116;6.734;2023-12-20T13:14:29;11.02;;;2.88;;
57651;SDS011;43480;53.116;6.734;2023-12-20T13:16:58;13.48;;;2.95;;
57651;SDS011;43480;53.116;6.734;2023-12-20T13:19:23;13.00;;;3.13;;
57651;SDS011;43480;53.116;6.734;2023-12-20T13:21:49;17.33;;;3.75;;
57651;SDS011;43480;53.116;6.734;2023-12-20T13:24:15;18.90;;;3.90;;
57651;SDS011;43480;53.116;6.734;2023-12-20T13:26:40;12.15;;;2.53;;
57651;SDS011;43480;53.116;6.734;2023-12-20T13:29:06;10.82;;;3.28;;
57651;SDS011;43480;53.116;6.734;2023-12-20T13:31:32;14.70;;;3.28;;
57651;SDS011;43480;53.116;6.734;2023-12-20T13:33:57;16.88;;;2.65;;
57651;SDS011;43480;53.116;6.734;2023-12-20T13:36:23;17.05;;;3.13;;
57651;SDS011;43480;53.116;6.734;2023-12-20T13:38:49;11.27;;;2.22;;
57651;SDS011;43480;53.116;6.734;2023-12-20T13:41:15;15.80;;;2.92;;
57651;SDS011;43480;53.116;6.734;2023-12-20T13:43:40;9.93;;;2.10;;
57651;SDS011;43480;53.116;6.734;2023-12-20T13:46:07;12.82;;;1.90;;
57651;SDS011;43480;53.116;6.734;2023-12-20T13:48:34;12.77;;;2.35;;
57651;SDS011;43480;53.116;6.734;2023-12-20T13:51:00;12.07;;;1.90;;
57651;SDS011;43480;53.116;6.734;2023-12-20T13:53:27;9.15;;;2.00;;
57651;SDS011;43480;53.116;6.734;2023-12-20T13:55:53;12.45;;;2.10;;
57651;SDS011;43480;53.116;6.734;2023-12-20T13:58:19;13.38;;;2.58;;
57651;SDS011;43480;53.116;6.734;2023-12-20T14:00:45;14.73;;;2.42;;
57651;SDS011;43480;53.116;6.734;2023-12-20T14:03:11;9.27;;;1.80;;
57651;SDS011;43480;53.116;6.734;2023-12-20T14:05:36;13.15;;;1.67;;
57651;SDS011;43480;53.116;6.734;2023-12-20T14:08:02;8.70;;;1.75;;
57651;SDS011;43480;53.116;6.734;2023-12-20T14:10:28;14.45;;;2.15;;
57651;SDS011;43480;53.116;6.734;2023-12-20T14:12:54;8.55;;;1.67;;
57651;SDS011;43480;53.116;6.734;2023-12-20T14:15:20;6.22;;;1.40;;
57651;SDS011;43480;53.116;6.734;2023-12-20T14:17:45;8.70;;;2.00;;
57651;SDS011;43480;53.116;6.734;2023-12-20T14:20:11;8.23;;;2.30;;
57651;SDS011;43480;53.116;6.734;2023-12-20T14:22:38;8.55;;;1.60;;
57651;SDS011;43480;53.116;6.734;2023-12-20T14:25:08;8.68;;;1.27;;
57651;SDS011;43480;53.116;6.734;2023-12-20T14:27:37;10.60;;;2.65;;
57651;SDS011;43480;53.116;6.734;2023-12-20T14:30:03;9.68;;;1.50;;
57651;SDS011;43480;53.116;6.734;2023-12-20T14:32:29;7.63;;;1.30;;
57651;SDS011;43480;53.116;6.734;2023-12-20T14:34:56;7.80;;;1.70;;
57651;SDS011;43480;53.116;6.734;2023-12-20T14:37:21;9.63;;;1.67;;
57651;SDS011;43480;53.116;6.734;2023-12-20T14:39:47;5.85;;;1.45;;